Time;durP1;ratioP1;P1;durP2;ratioP2;P2;SDS_P1;SDS_P2;PMS_P1;PMS_P2;Temp;Humidity;BMP_temperature;BMP_pressure;BME280_temperature;BME280_humidity;BME280_pressure;Samples;Min_cycle;Max_cycle;Signal;HPM_P1;HPM_P2
2021/05/08 00:01:55;;;;;;;9.43;4.45;;;;;;;10.32;100.00;101091.81;5073608;28;20044;-65
2021/05/08 00:04:21;;;;;;;14.25;4.38;;;;;;;10.34;100.00;101082.31;5073333;28;20036;-66
2021/05/08 00:06:46;;;;;;;14.48;3.53;;;;;;;10.37;100.00;101073.66;5073613;28;20037;-66
2021/05/08 00:09:13;;;;;;;6.93;2.78;;;;;;;10.39;100.00;101063.31;5073576;28;20033;-65
2021/05/08 00:11:40;;;;;;;9.45;2.60;;;;;;;10.40;100.00;101051.31;5073372;28;20063;-65
2021/05/08 00:14:07;;;;;;;10.68;2.65;;;;;;;10.42;100.00;101048.38;5073264;28;20115;-66
2021/05/08 00:16:32;;;;;;;12.10;2.00;;;;;;;10.41;100.00;101033.03;5073270;28;20068;-65
2021/05/08 00:18:58;;;;;;;11.43;1.80;;;;;;;10.39;100.00;101022.34;5073482;28;20060;-66
2021/05/08 00:21:24;;;;;;;11.10;2.53;;;;;;;10.39;100.00;101000.53;5073242;28;20403;-65
2021/05/08 00:23:50;;;;;;;8.20;2.13;;;;;;;10.37;100.00;100997.19;5073120;28;20036;-66
2021/05/08 00:26:16;;;;;;;13.00;2.45;;;;;;;10.36;100.00;101005.63;5073130;28;20052;-64
2021/05/08 00:28:44;;;;;;;13.02;2.08;;;;;;;10.37;100.00;100990.91;5072899;28;20040;-65
2021/05/08 00:31:09;;;;;;;13.93;2.60;;;;;;;10.38;100.00;100998.84;5073179;28;20040;-65
2021/05/08 00:33:35;;;;;;;11.98;2.55;;;;;;;10.39;100.00;100984.13;5072943;28;20368;-65
2021/05/08 00:36:01;;;;;;;10.45;2.70;;;;;;;10.38;100.00;100993.41;5072876;28;20036;-67
2021/05/08 00:38:26;;;;;;;10.88;2.10;;;;;;;10.36;100.00;100951.84;5072949;28;20059;-64
2021/05/08 00:40:52;;;;;;;13.90;3.22;;;;;;;10.36;100.00;100957.31;5072847;28;20079;-64
2021/05/08 00:43:18;;;;;;;15.52;2.47;;;;;;;10.36;100.00;100954.59;5073041;28;20036;-65
2021/05/08 00:45:46;;;;;;;13.75;2.20;;;;;;;10.37;100.00;100931.66;5072862;28;20036;-66
2021/05/08 00:48:13;;;;;;;10.02;2.05;;;;;;;10.38;100.00;100946.16;5072766;28;20059;-66
2021/05/08 00:50:39;;;;;;;19.50;2.35;;;;;;;10.38;100.00;100927.03;5072554;28;20040;-65
2021/05/08 00:53:08;;;;;;;9.55;2.05;;;;;;;10.39;100.00;100931.44;5072421;28;20048;-66
2021/05/08 00:55:35;;;;;;;16.08;2.95;;;;;;;10.41;100.00;100916.50;5072869;28;20391;-66
2021/05/08 00:58:01;;;;;;;17.52;3.08;;;;;;;10.44;100.00;100899.63;5072422;28;20125;-66
2021/05/08 01:00:28;;;;;;;18.85;3.58;;;;;;;10.44;100.00;100894.16;5072500;28;20032;-67
2021/05/08 01:02:54;;;;;;;21.30;4.20;;;;;;;10.49;100.00;100887.97;5072402;28;20513;-64
2021/05/08 01:05:20;;;;;;;20.38;5.15;;;;;;;10.52;100.00;100891.06;5072280;28;20037;-65
2021/05/08 01:07:46;;;;;;;21.00;3.60;;;;;;;10.59;100.00;100880.00;5072425;28;20040;-67
2021/05/08 01:10:14;;;;;;;19.70;3.42;;;;;;;10.64;100.00;100871.09;5072376;28;20051;-64
2021/05/08 01:12:42;;;;;;;14.75;3.17;;;;;;;10.68;100.00;100855.88;5071935;28;20037;-64
2021/05/08 01:15:10;;;;;;;16.15;3.72;;;;;;;10.73;100.00;100847.75;5072347;28;20037;-65
2021/05/08 01:17:40;;;;;;;19.08;4.00;;;;;;;10.76;100.00;100844.53;5072434;28;20451;-64
2021/05/08 01:20:09;;;;;;;14.02;4.63;;;;;;;10.80;100.00;100840.28;5072008;28;20036;-66
2021/05/08 01:22:34;;;;;;;15.07;3.70;;;;;;;10.84;100.00;100850.47;5072079;28;20032;-64
2021/05/08 01:25:00;;;;;;;14.98;3.22;;;;;;;10.86;100.00;100839.28;5072015;28;20379;-66
2021/05/08 01:27:26;;;;;;;21.02;4.10;;;;;;;10.92;100.00;100849.22;5071828;28;20507;-65
2021/05/08 01:29:52;;;;;;;14.13;4.00;;;;;;;10.96;100.00;100835.94;5070665;28;20048;-66
2021/05/08 01:32:18;;;;;;;14.88;3.65;;;;;;;11.00;100.00;100816.06;5071937;28;20101;-65
2021/05/08 01:34:43;;;;;;;15.13;3.88;;;;;;;11.04;100.00;100810.91;5071515;28;20043;-66
2021/05/08 01:37:09;;;;;;;19.10;3.20;;;;;;;11.07;100.00;100811.25;5071803;28;20090;-64
2021/05/08 01:39:34;;;;;;;19.35;3.53;;;;;;;11.11;100.00;100806.16;5071832;28;20029;-65
2021/05/08 01:42:00;;;;;;;22.40;3.40;;;;;;;11.18;100.00;100791.22;5071521;28;20037;-65
2021/05/08 01:44:25;;;;;;;17.75;3.67;;;;;;;11.23;100.00;100775.97;5071655;28;20028;-67
2021/05/08 01:46:53;;;;;;;21.23;4.60;;;;;;;11.28;100.00;100773.31;5071676;28;20048;-65
2021/05/08 01:49:20;;;;;;;34.58;5.70;;;;;;;11.34;100.00;100766.88;5071527;28;20082;-65
2021/05/08 01:51:46;;;;;;;24.63;5.45;;;;;;;11.38;100.00;100762.56;5071386;28;20109;-65
2021/05/08 01:54:19;;;;;;;24.60;4.63;;;;;;;11.41;100.00;100745.66;5071111;28;20044;-66
2021/05/08 01:56:45;;;;;;;24.20;4.65;;;;;;;11.45;100.00;100727.66;5071563;28;20037;-63
2021/05/08 01:59:14;;;;;;;33.25;6.22;;;;;;;11.47;100.00;100717.31;5071419;28;20563;-65
2021/05/08 02:01:40;;;;;;;32.00;5.82;;;;;;;11.50;100.00;100722.28;5071348;28;20040;-66
2021/05/08 02:04:07;;;;;;;38.40;6.30;;;;;;;11.53;100.00;100701.78;5070596;28;20044;-64
2021/05/08 02:06:33;;;;;;;52.10;6.68;;;;;;;11.56;100.00;100693.91;5071233;28;20067;-66
2021/05/08 02:08:59;;;;;;;27.25;5.35;;;;;;;11.58;100.00;100691.75;5071136;28;20033;-65
2021/05/08 02:11:25;;;;;;;43.70;6.38;;;;;;;11.63;100.00;100683.63;5070956;28;20544;-65
2021/05/08 02:13:50;;;;;;;37.15;5.70;;;;;;;11.67;100.00;100683.94;5071035;28;20039;-64
2021/05/08 02:16:16;;;;;;;29.98;6.10;;;;;;;11.72;100.00;100686.75;5069683;28;20040;-65
2021/05/08 02:18:42;;;;;;;32.80;4.65;;;;;;;11.71;100.00;100677.72;5071023;28;20037;-64
2021/05/08 02:21:08;;;;;;;39.50;4.13;;;;;;;11.74;100.00;100668.97;5071122;28;20056;-67
2021/05/08 02:23:34;;;;;;;40.40;7.10;;;;;;;11.75;100.00;100659.69;5071031;28;20443;-65
2021/05/08 02:26:00;;;;;;;39.80;5.40;;;;;;;11.75;100.00;100654.22;5070791;28;20036;-66
2021/05/08 02:28:26;;;;;;;42.38;6.72;;;;;;;11.76;100.00;100628.50;5070850;28;20043;-66
2021/05/08 02:30:52;;;;;;;50.17;6.13;;;;;;;11.77;100.00;100635.63;5070928;28;20051;-65
2021/05/08 02:33:17;;;;;;;51.63;7.53;;;;;;;11.78;100.00;100648.25;5070614;28;20040;-66
2021/05/08 02:35:43;;;;;;;60.97;7.47;;;;;;;11.77;100.00;100643.84;5070860;28;20048;-66
2021/05/08 02:38:09;;;;;;;51.50;7.75;;;;;;;11.78;100.00;100626.38;5070941;28;20036;-66
2021/05/08 02:40:37;;;;;;;52.17;7.10;;;;;;;11.81;100.00;100626.97;5070607;28;20559;-65
2021/05/08 02:43:06;;;;;;;68.18;10.30;;;;;;;11.82;100.00;100620.41;5070951;28;20047;-64
2021/05/08 02:45:32;;;;;;;54.30;9.15;;;;;;;11.86;100.00;100624.28;5070944;28;20375;-65
2021/05/08 02:47:57;;;;;;;60.40;9.40;;;;;;;11.88;100.00;100611.16;5070492;28;20502;-65
2021/05/08 02:50:23;;;;;;;50.40;8.52;;;;;;;11.91;100.00;100596.97;5070672;28;20033;-65
2021/05/08 02:52:49;;;;;;;60.53;9.98;;;;;;;11.92;100.00;100593.16;5070297;28;20040;-65
2021/05/08 02:55:16;;;;;;;70.70;9.52;;;;;;;11.94;100.00;100596.44;5070603;28;20075;-64
2021/05/08 02:57:42;;;;;;;67.43;9.60;;;;;;;11.94;100.00;100585.50;5070636;28;20060;-64
2021/05/08 03:00:10;;;;;;;51.88;9.07;;;;;;;11.94;100.00;100582.75;5070613;28;20424;-65
2021/05/08 03:02:37;;;;;;;62.58;10.05;;;;;;;11.95;100.00;100576.22;5070299;28;20036;-63
2021/05/08 03:05:03;;;;;;;58.78;10.15;;;;;;;11.96;100.00;100575.94;5070485;28;20040;-65
2021/05/08 03:07:29;;;;;;;59.92;8.75;;;;;;;11.97;100.00;100576.78;5070561;28;20045;-65
2021/05/08 03:09:55;;;;;;;53.55;6.88;;;;;;;11.97;100.00;100579.50;5070414;28;20032;-65
2021/05/08 03:12:20;;;;;;;63.60;8.05;;;;;;;11.99;100.00;100566.41;5070661;28;20039;-66
2021/05/08 03:14:46;;;;;;;61.28;8.15;;;;;;;11.97;100.00;100568.56;5071120;28;20028;-65
2021/05/08 03:17:12;;;;;;;56.67;8.43;;;;;;;11.97;100.00;100569.38;5074311;28;20402;-66
2021/05/08 03:19:37;;;;;;;88.03;9.38;;;;;;;11.97;100.00;100560.34;5074399;28;20036;-66
2021/05/08 03:22:04;;;;;;;54.70;7.82;;;;;;;12.00;100.00;100552.47;5073271;28;20044;-66
2021/05/08 03:24:30;;;;;;;52.25;8.45;;;;;;;12.01;100.00;100547.81;5074144;28;20040;-65
2021/05/08 03:26:56;;;;;;;52.45;8.25;;;;;;;12.05;100.00;100547.03;5074594;28;20501;-65
2021/05/08 03:29:21;;;;;;;58.97;9.25;;;;;;;12.04;100.00;100536.34;5073004;28;20044;-65
2021/05/08 03:31:47;;;;;;;56.17;8.85;;;;;;;12.04;100.00;100541.81;5074140;28;20036;-64
2021/05/08 03:34:13;;;;;;;43.35;7.65;;;;;;;12.06;100.00;100531.44;5074092;28;20039;-65
2021/05/08 03:36:38;;;;;;;53.15;9.70;;;;;;;12.07;100.00;100536.66;5074031;28;20062;-67
2021/05/08 03:39:05;;;;;;;45.63;7.95;;;;;;;12.09;100.00;100522.69;5073848;28;20033;-64
2021/05/08 03:41:31;;;;;;;49.38;9.73;;;;;;;12.12;100.00;100533.13;5073953;28;20051;-66
2021/05/08 03:43:56;;;;;;;54.20;8.98;;;;;;;12.13;100.00;100517.53;5073909;28;20036;-66
2021/05/08 03:46:25;;;;;;;51.10;9.25;;;;;;;12.13;100.00;100518.34;5073673;28;20131;-66
2021/05/08 03:48:51;;;;;;;60.30;8.13;;;;;;;12.13;100.00;100501.94;5074004;28;20037;-66
2021/05/08 03:51:16;;;;;;;51.85;8.63;;;;;;;12.15;100.00;100516.22;5073859;28;20043;-67
2021/05/08 03:53:42;;;;;;;52.28;7.97;;;;;;;12.17;100.00;100521.41;5073297;28;20498;-65
2021/05/08 03:56:08;;;;;;;56.70;8.35;;;;;;;12.18;100.00;100504.72;5073665;28;20143;-66
2021/05/08 03:58:34;;;;;;;53.42;8.82;;;;;;;12.18;100.00;100504.72;5073592;28;20538;-65
2021/05/08 04:00:59;;;;;;;65.25;9.80;;;;;;;12.18;100.00;100507.47;5074000;28;20036;-65
2021/05/08 04:03:26;;;;;;;61.97;10.13;;;;;;;12.16;100.00;100501.44;5073564;28;20037;-65
2021/05/08 04:05:52;;;;;;;60.40;9.10;;;;;;;12.17;100.00;100496.78;5073687;28;20119;-65
2021/05/08 04:08:18;;;;;;;58.97;10.00;;;;;;;12.16;100.00;100487.75;5073597;28;20182;-66
2021/05/08 04:10:50;;;;;;;63.47;11.10;;;;;;;12.15;100.00;100486.09;5073274;28;20039;-66
2021/05/08 04:13:16;;;;;;;70.70;9.93;;;;;;;12.14;100.00;100480.84;5073308;28;20029;-66
2021/05/08 04:15:43;;;;;;;77.68;9.88;;;;;;;12.15;100.00;100482.50;5073258;28;20048;-64
2021/05/08 04:18:09;;;;;;;70.68;10.60;;;;;;;12.14;100.00;100465.25;5073125;28;20047;-65
2021/05/08 04:20:35;;;;;;;64.82;10.95;;;;;;;12.13;100.00;100480.03;5073413;28;20446;-67
2021/05/08 04:23:01;;;;;;;63.17;10.07;;;;;;;12.13;100.00;100471.81;5073324;28;20044;-66
2021/05/08 04:25:27;;;;;;;49.42;9.90;;;;;;;12.15;100.00;100477.03;5072642;28;20044;-65
2021/05/08 04:27:54;;;;;;;52.90;8.82;;;;;;;12.16;100.00;100468.56;5073323;28;20036;-65
2021/05/08 04:30:20;;;;;;;52.70;9.52;;;;;;;12.19;100.00;100459.00;5073030;28;20494;-65
2021/05/08 04:32:46;;;;;;;61.72;10.40;;;;;;;12.17;100.00;100459.28;5072706;28;20075;-65
2021/05/08 04:35:12;;;;;;;56.70;10.45;;;;;;;12.20;100.00;100475.16;5073006;28;20076;-64
2021/05/08 04:37:38;;;;;;;44.65;9.63;;;;;;;12.26;100.00;100463.16;5072999;28;20059;-65
2021/05/08 04:40:06;;;;;;;55.55;12.45;;;;;;;12.28;100.00;100466.47;5072893;28;20032;-66
2021/05/08 04:42:33;;;;;;;56.72;12.40;;;;;;;12.37;100.00;100459.41;5072921;28;20120;-65
2021/05/08 04:44:58;;;;;;;72.50;14.40;;;;;;;12.44;100.00;100461.09;5072905;28;20115;-65
2021/05/08 04:47:25;;;;;;;79.75;15.20;;;;;;;12.48;100.00;100464.94;5072572;28;20443;-64
2021/05/08 04:49:54;;;;;;;93.60;18.40;;;;;;;12.56;100.00;100467.22;5072802;28;20046;-66
2021/05/08 04:52:20;;;;;;;86.65;16.02;;;;;;;12.56;100.00;100472.69;5072641;28;20040;-67
2021/05/08 04:54:45;;;;;;;92.70;17.20;;;;;;;12.58;100.00;100465.84;5072237;28;20051;-66
2021/05/08 04:57:11;;;;;;;83.10;18.20;;;;;;;12.59;100.00;100456.53;5072718;28;20075;-66
2021/05/08 04:59:36;;;;;;;80.60;16.63;;;;;;;12.61;100.00;100459.00;5072743;28;20036;-65
2021/05/08 05:02:03;;;;;;;73.70;15.30;;;;;;;12.63;100.00;100452.16;5071113;28;20401;-66
2021/05/08 05:04:28;;;;;;;92.30;16.25;;;;;;;12.65;100.00;100471.91;5072433;28;20048;-67
2021/05/08 05:06:54;;;;;;;85.43;14.50;;;;;;;12.68;100.00;100465.91;5072409;28;20029;-65
2021/05/08 05:09:19;;;;;;;86.68;15.65;;;;;;;12.68;100.00;100470.56;5072210;28;20486;-65
2021/05/08 05:11:45;;;;;;;95.47;17.25;;;;;;;12.71;100.00;100467.28;5072665;28;20028;-65
2021/05/08 05:14:10;;;;;;;91.78;15.68;;;;;;;12.71;100.00;100459.06;5071021;28;20572;-65
2021/05/08 05:16:36;;;;;;;88.53;17.90;;;;;;;12.71;100.00;100470.03;5072062;28;20040;-67
2021/05/08 05:19:04;;;;;;;80.60;16.30;;;;;;;12.71;100.00;100459.06;5072312;28;20052;-67
2021/05/08 05:21:29;;;;;;;90.30;16.35;;;;;;;12.71;100.00;100463.72;5072110;28;20467;-67
2021/05/08 05:23:55;;;;;;;90.40;16.42;;;;;;;12.71;100.00;100463.72;5071836;28;20041;-66
2021/05/08 05:26:20;;;;;;;76.55;15.95;;;;;;;12.72;100.00;100460.72;5072016;28;20458;-66
2021/05/08 05:28:46;;;;;;;91.70;17.33;;;;;;;12.72;100.00;100462.63;5072421;28;20036;-66
2021/05/08 05:31:11;;;;;;;69.65;14.32;;;;;;;12.73;100.00;100467.84;5071766;28;20040;-65
2021/05/08 05:33:37;;;;;;;82.90;14.57;;;;;;;12.74;100.00;100455.81;5054029;28;20395;-66
2021/05/08 05:36:03;;;;;;;87.40;16.50;;;;;;;12.74;100.00;100474.97;5072043;28;20041;-66
2021/05/08 05:38:28;;;;;;;78.95;16.83;;;;;;;12.81;100.00;100459.13;5070835;28;20036;-65
2021/05/08 05:40:55;;;;;;;78.00;14.05;;;;;;;12.86;100.00;100461.06;5071772;28;20047;-67
2021/05/08 05:43:21;;;;;;;81.97;15.07;;;;;;;12.86;100.00;100453.69;5071702;28;20467;-66
2021/05/08 05:45:47;;;;;;;73.97;14.82;;;;;;;12.88;100.00;100470.69;5071435;28;20436;-65
2021/05/08 05:48:13;;;;;;;83.43;14.90;;;;;;;12.90;100.00;100473.97;5071896;28;20055;-65
2021/05/08 05:50:40;;;;;;;76.90;16.63;;;;;;;12.91;100.00;100464.66;5071804;28;20079;-66
2021/05/08 05:53:06;;;;;;;82.03;15.63;;;;;;;12.91;100.00;100459.19;5071202;28;20056;-66
2021/05/08 05:55:32;;;;;;;86.72;16.33;;;;;;;12.88;100.00;100469.84;5071507;28;20059;-63
2021/05/08 05:57:58;;;;;;;79.45;14.38;;;;;;;12.87;100.00;100463.56;5071431;28;20040;-64
2021/05/08 06:00:24;;;;;;;92.15;15.60;;;;;;;12.86;100.00;100470.13;5071226;28;20041;-66
2021/05/08 06:02:50;;;;;;;80.47;13.63;;;;;;;12.85;100.00;100465.75;5071383;28;20391;-66
2021/05/08 06:05:16;;;;;;;81.22;15.43;;;;;;;12.85;100.00;100471.22;5071281;28;20452;-66
2021/05/08 06:07:41;;;;;;;85.20;14.93;;;;;;;12.85;100.00;100465.75;5071341;28;20046;-66
2021/05/08 06:10:10;;;;;;;88.28;18.17;;;;;;;12.81;100.00;100470.06;5071374;28;20090;-66
2021/05/08 06:12:36;;;;;;;76.53;15.40;;;;;;;12.80;100.00;100478.56;5071434;28;20032;-65
2021/05/08 06:15:03;;;;;;;94.55;15.10;;;;;;;12.80;100.00;100465.69;5071157;28;20032;-66
2021/05/08 06:17:28;;;;;;;90.43;16.13;;;;;;;12.79;100.00;100476.91;5071771;28;20040;-66
2021/05/08 06:19:54;;;;;;;87.20;15.63;;;;;;;12.76;100.00;100448.13;5071354;28;20097;-66
2021/05/08 06:22:19;;;;;;;86.78;17.25;;;;;;;12.76;100.00;100467.31;5071530;28;20032;-66
2021/05/08 06:24:46;;;;;;;91.68;16.15;;;;;;;12.74;100.00;100458.53;5071291;28;20039;-66
2021/05/08 06:27:11;;;;;;;90.00;15.05;;;;;;;12.78;100.00;100476.09;5071152;28;20425;-65
2021/05/08 06:29:37;;;;;;;76.25;13.95;;;;;;;12.77;100.00;100462.66;5071065;28;20040;-65
2021/05/08 06:32:06;;;;;;;72.47;14.73;;;;;;;12.79;100.00;100461.31;5069830;28;20073;-65
2021/05/08 06:34:32;;;;;;;89.75;14.90;;;;;;;12.75;100.00;100476.63;5070773;28;20035;-67
2021/05/08 06:37:00;;;;;;;81.07;14.82;;;;;;;12.74;100.00;100452.25;5069390;28;20049;-65
2021/05/08 06:39:26;;;;;;;91.00;14.68;;;;;;;12.74;100.00;100469.50;5070799;28;20036;-66
2021/05/08 06:41:52;;;;;;;93.82;16.13;;;;;;;12.73;100.00;100456.91;5070822;28;20386;-66
2021/05/08 06:44:18;;;;;;;92.88;15.13;;;;;;;12.72;100.00;100465.38;5070806;28;20136;-67
2021/05/08 06:46:44;;;;;;;103.55;17.10;;;;;;;12.69;100.00;100474.97;5070940;28;20040;-68
2021/05/08 06:49:09;;;;;;;86.20;14.50;;;;;;;12.71;100.00;100470.03;5069394;28;20162;-67
2021/05/08 06:51:35;;;;;;;100.68;16.23;;;;;;;12.71;100.00;100475.53;5070533;28;20525;-67
2021/05/08 06:54:00;;;;;;;91.35;13.70;;;;;;;12.68;100.00;100478.78;5070471;28;20584;-68
2021/05/08 06:56:27;;;;;;;88.72;15.70;;;;;;;12.67;100.00;100479.88;5070608;28;20207;-66
2021/05/08 06:58:53;;;;;;;84.38;15.23;;;;;;;12.67;100.00;100475.22;5070440;28;20688;-68
2021/05/08 07:01:19;;;;;;;86.03;14.60;;;;;;;12.69;100.00;100485.91;5070772;28;20037;-66
2021/05/08 07:03:45;;;;;;;101.22;15.77;;;;;;;12.67;100.00;100482.63;5070707;28;20048;-64
2021/05/08 07:06:11;;;;;;;80.22;13.48;;;;;;;12.69;100.00;100480.44;5070365;28;20082;-67
2021/05/08 07:08:36;;;;;;;88.47;14.55;;;;;;;12.70;100.00;100484.84;5070615;28;20444;-65
2021/05/08 07:11:02;;;;;;;86.32;13.02;;;;;;;12.67;100.00;100477.16;5070457;28;20049;-66
2021/05/08 07:13:28;;;;;;;88.90;14.50;;;;;;;12.66;100.00;100483.69;5070379;28;20037;-68
2021/05/08 07:15:54;;;;;;;87.80;14.73;;;;;;;12.61;100.00;100476.28;5070337;28;20081;-67
2021/05/08 07:18:20;;;;;;;93.50;14.82;;;;;;;12.61;100.00;100476.28;5070549;28;20115;-67
2021/05/08 07:20:46;;;;;;;104.07;16.80;;;;;;;12.60;100.00;100479.28;5070434;28;20182;-68
2021/05/08 07:23:11;;;;;;;82.78;14.63;;;;;;;12.60;100.00;100490.25;5070224;28;20036;-66
2021/05/08 07:25:37;;;;;;;94.22;16.17;;;;;;;12.57;100.00;100488.03;5070208;28;20470;-65
2021/05/08 07:28:26;;;;;;;96.82;17.33;;;;;;;12.58;100.00;100475.97;5070259;28;20033;-65
2021/05/08 07:30:54;;;;;;;89.43;16.33;;;;;;;12.63;100.00;100478.75;5070218;28;20131;-66
2021/05/08 07:33:21;;;;;;;82.88;15.95;;;;;;;12.63;100.00;100481.47;5070183;28;20033;-65
2021/05/08 07:35:47;;;;;;;96.03;16.55;;;;;;;12.62;100.00;100488.06;5070141;28;20041;-65
2021/05/08 07:38:14;;;;;;;89.10;16.23;;;;;;;12.60;100.00;100488.31;5070415;28;20060;-66
2021/05/08 07:40:40;;;;;;;94.13;14.70;;;;;;;12.57;100.00;100490.78;5070247;28;20068;-65
2021/05/08 07:43:07;;;;;;;105.57;16.88;;;;;;;12.54;100.00;100491.31;5069897;28;20040;-66
2021/05/08 07:45:33;;;;;;;92.63;15.68;;;;;;;12.54;100.00;100485.81;5070159;28;20075;-67
2021/05/08 07:47:59;;;;;;;92.05;15.57;;;;;;;12.51;100.00;100497.31;5070199;28;20072;-66
2021/05/08 07:50:26;;;;;;;91.90;17.23;;;;;;;12.50;100.00;100495.66;5070075;28;20094;-67
2021/05/08 07:52:52;;;;;;;124.72;18.42;;;;;;;12.48;100.00;100495.06;5069715;28;20047;-66
2021/05/08 07:55:18;;;;;;;106.57;16.77;;;;;;;12.49;100.00;100477.56;5070319;28;20040;-67
2021/05/08 07:57:44;;;;;;;95.78;15.45;;;;;;;12.48;100.00;100492.34;5070267;28;20033;-65
2021/05/08 08:00:11;;;;;;;89.57;16.80;;;;;;;12.53;100.00;100495.13;5069807;28;20036;-67
2021/05/08 08:02:38;;;;;;;122.30;17.85;;;;;;;12.51;100.00;100480.88;5073426;28;20039;-66
2021/05/08 08:05:06;;;;;;;106.75;16.02;;;;;;;12.51;100.00;100491.84;5073561;28;20025;-67
2021/05/08 08:07:31;;;;;;;87.43;16.63;;;;;;;12.58;100.00;100486.94;5073801;28;20113;-65
2021/05/08 08:09:57;;;;;;;91.88;16.02;;;;;;;12.59;100.00;100494.88;5073444;28;20486;-65
2021/05/08 08:12:23;;;;;;;124.07;19.35;;;;;;;12.59;100.00;100499.53;5073732;28;20042;-67
2021/05/08 08:14:49;;;;;;;104.78;17.00;;;;;;;12.55;100.00;100498.44;5073317;28;20060;-66
2021/05/08 08:17:15;;;;;;;98.18;17.75;;;;;;;12.58;100.00;100495.16;5073248;28;20119;-66
2021/05/08 08:19:41;;;;;;;111.80;18.13;;;;;;;12.57;100.00;100490.78;5073355;28;20174;-67
2021/05/08 08:22:07;;;;;;;112.00;16.42;;;;;;;12.56;100.00;100478.16;5071756;28;20483;-65
2021/05/08 08:24:32;;;;;;;95.57;18.60;;;;;;;12.58;100.00;100486.94;5073219;28;20043;-66
2021/05/08 08:26:59;;;;;;;93.25;17.33;;;;;;;12.61;100.00;100491.88;5073132;28;20047;-66
2021/05/08 08:29:26;;;;;;;100.07;15.40;;;;;;;12.59;100.00;100477.63;5073116;28;20036;-66
2021/05/08 08:31:51;;;;;;;96.03;16.67;;;;;;;12.59;100.00;100488.59;5073416;28;20503;-66
2021/05/08 08:34:17;;;;;;;100.53;17.48;;;;;;;12.61;100.00;100497.38;5073120;28;20121;-68
2021/05/08 08:36:43;;;;;;;92.07;15.90;;;;;;;12.63;100.00;100473.25;5072765;28;20048;-67
2021/05/08 08:39:09;;;;;;;97.97;16.90;;;;;;;12.62;100.00;100477.91;5072967;28;20509;-66
2021/05/08 08:41:35;;;;;;;81.80;15.15;;;;;;;12.65;100.00;100490.25;5072814;28;20097;-66
2021/05/08 08:44:02;;;;;;;106.93;16.77;;;;;;;12.65;100.00;100482.03;5073029;28;20039;-67
2021/05/08 08:46:27;;;;;;;90.50;17.15;;;;;;;12.67;100.00;100460.72;5072941;28;20086;-66
2021/05/08 08:48:53;;;;;;;105.30;15.85;;;;;;;12.65;100.00;100482.03;5072996;28;20060;-66
2021/05/08 08:51:19;;;;;;;96.78;15.43;;;;;;;12.64;100.00;100483.97;5072528;28;20036;-66
2021/05/08 08:53:47;;;;;;;100.15;17.17;;;;;;;12.63;100.00;100482.31;5071009;28;20094;-66
2021/05/08 08:56:15;;;;;;;90.63;16.63;;;;;;;12.65;100.00;100484.78;5072584;28;20060;-67
2021/05/08 08:58:43;;;;;;;90.70;16.42;;;;;;;12.60;100.00;100471.88;5072495;28;20390;-67
2021/05/08 09:01:09;;;;;;;93.40;16.80;;;;;;;12.60;100.00;100476.53;5072520;28;20043;-65
2021/05/08 09:03:35;;;;;;;103.43;17.05;;;;;;;12.58;100.00;100473.25;5072542;28;20033;-66
2021/05/08 09:06:02;;;;;;;103.32;17.20;;;;;;;12.54;100.00;100464.72;5072501;28;20817;-66
2021/05/08 09:08:29;;;;;;;108.40;16.13;;;;;;;12.56;100.00;100464.47;5072585;28;20117;-66
2021/05/08 09:11:24;;;;;;;104.63;16.40;;;;;;;12.54;100.00;100472.13;5072296;28;20036;-67
2021/05/08 09:14:15;;;;;;;90.60;17.07;;;;;;;12.50;100.00;100465.53;5072111;28;20025;-66
2021/05/08 09:17:09;;;;;;;112.15;18.70;;;;;;;12.51;100.00;100464.44;5072233;28;20036;-66
2021/05/08 09:19:43;;;;;;;98.35;15.43;;;;;;;12.54;100.00;100469.38;5072011;28;20082;-66
2021/05/08 09:22:24;;;;;;;117.40;18.13;;;;;;;12.55;100.00;100465.56;5071878;28;20024;-65
2021/05/08 09:25:02;;;;;;;113.30;16.25;;;;;;;12.55;100.00;100460.06;5072171;28;20032;-68
2021/05/08 09:27:40;;;;;;;102.20;18.42;;;;;;;12.51;100.00;100478.13;5071980;28;20063;-67
2021/05/08 09:30:13;;;;;;;104.25;16.63;;;;;;;12.53;100.00;100462.25;5072075;28;20033;-65
2021/05/08 09:32:46;;;;;;;86.07;15.48;;;;;;;12.52;100.00;100466.91;5071833;28;20066;-66
2021/05/08 09:35:20;;;;;;;93.88;16.02;;;;;;;12.54;100.00;100452.94;5071670;28;20035;-66
2021/05/08 09:37:49;;;;;;;86.47;16.13;;;;;;;12.55;100.00;100473.78;5071946;28;20028;-65
2021/05/08 09:40:22;;;;;;;89.32;15.98;;;;;;;12.59;100.00;100467.50;5072164;28;20478;-66
2021/05/08 09:42:54;;;;;;;101.63;16.93;;;;;;;12.62;100.00;100449.69;5071692;28;20097;-65
2021/05/08 09:45:21;;;;;;;97.65;14.15;;;;;;;12.63;100.00;100451.34;5071651;28;20028;-68
2021/05/08 09:47:47;;;;;;;89.50;14.77;;;;;;;12.64;100.00;100470.25;5071675;28;20187;-66
2021/05/08 09:50:14;;;;;;;83.30;15.00;;;;;;;12.66;100.00;100468.06;5071287;28;20539;-66
2021/05/08 09:52:53;;;;;;;98.57;16.02;;;;;;;12.69;100.00;100464.00;5071465;28;20115;-67
2021/05/08 09:55:20;;;;;;;92.20;15.82;;;;;;;12.71;100.00;100441.81;5071593;28;20399;-65
2021/05/08 09:58:07;;;;;;;102.28;16.63;;;;;;;12.74;100.00;100442.09;5071362;28;20028;-65
2021/05/08 10:00:38;;;;;;;90.45;15.18;;;;;;;12.75;100.00;100454.72;5071479;28;20414;-66
2021/05/08 10:03:13;;;;;;;94.97;15.02;;;;;;;12.78;100.00;100462.38;5071213;28;20029;-65
2021/05/08 10:05:39;;;;;;;;;;;;;;;12.77;100.00;100458.00;5071915;28;20540;-66
2021/05/08 10:08:06;;;;;;;108.72;15.75;;;;;;;12.78;100.00;100475.28;5071309;28;19931;-66
2021/05/08 10:10:32;;;;;;;88.90;13.95;;;;;;;12.75;100.00;100468.41;5069913;28;20443;-67
2021/05/08 10:13:01;;;;;;;94.45;16.00;;;;;;;12.73;100.00;100465.13;5070919;28;20486;-68
2021/05/08 10:15:27;;;;;;;95.35;15.63;;;;;;;12.72;100.00;100437.97;5071191;28;20524;-65
2021/05/08 10:17:53;;;;;;;79.80;14.48;;;;;;;12.72;100.00;100468.94;5071208;28;20486;-67
2021/05/08 10:20:21;;;;;;;99.18;16.42;;;;;;;12.73;100.00;100470.59;5070895;28;20036;-66
2021/05/08 10:22:57;;;;;;;103.03;15.63;;;;;;;12.71;100.00;100428.13;5070982;28;20093;-67
2021/05/08 10:25:24;;;;;;;81.85;14.40;;;;;;;12.71;100.00;100469.22;5070587;28;20197;-66
2021/05/08 10:27:50;;;;;;;94.32;17.35;;;;;;;12.68;100.00;100467.84;5070799;28;20119;-66
2021/05/08 10:30:18;;;;;;;94.70;17.35;;;;;;;12.71;100.00;100463.72;5070922;28;20050;-66
2021/05/08 10:32:46;;;;;;;96.32;15.70;;;;;;;12.73;100.00;100473.34;5070949;28;20044;-65
2021/05/08 10:35:14;;;;;;;107.97;16.42;;;;;;;12.72;100.00;100466.22;5071225;28;20048;-66
2021/05/08 10:38:00;;;;;;;100.05;16.67;;;;;;;12.74;100.00;100469.50;5070794;28;20054;-65
2021/05/08 10:40:26;;;;;;;88.75;18.02;;;;;;;12.73;100.00;100467.84;5070652;28;20041;-65
2021/05/08 10:42:52;;;;;;;99.53;17.25;;;;;;;12.70;100.00;100479.34;5069087;28;20068;-66
2021/05/08 10:45:18;;;;;;;106.45;18.17;;;;;;;12.67;100.00;100458.78;5070742;28;20075;-64
2021/05/08 10:47:59;;;;;;;101.63;18.67;;;;;;;12.70;100.00;100473.88;5069525;28;20056;-67
2021/05/08 10:50:34;;;;;;;97.38;16.10;;;;;;;12.65;100.00;100460.13;5070708;28;20047;-66
2021/05/08 10:53:00;;;;;;;95.78;14.48;;;;;;;12.61;100.00;100465.31;5070749;28;20040;-67
2021/05/08 10:55:28;;;;;;;96.07;14.75;;;;;;;12.62;100.00;100466.13;5070388;28;20049;-66
2021/05/08 10:58:20;;;;;;;96.68;15.38;;;;;;;12.58;100.00;100463.09;5070589;28;20064;-65
2021/05/08 11:00:56;;;;;;;100.65;16.42;;;;;;;12.57;100.00;100463.38;5070838;28;20473;-65
2021/05/08 11:03:33;;;;;;;93.45;16.10;;;;;;;12.58;100.00;100459.53;5070362;28;20029;-65
2021/05/08 11:06:03;;;;;;;84.63;14.55;;;;;;;12.56;100.00;100467.22;5070518;28;20039;-67